sensor_id;sensor_type;location;lat;lon;timestamp;pressure;altitude;pressure_sealevel;temperature;humidity
62791;BME280;48830;53.426;10.300;2023-04-27T00:01:48;101858.47;;;4.17;100.00
62791;BME280;48830;53.426;10.300;2023-04-27T00:04:13;101859.16;;;4.15;100.00
62791;BME280;48830;53.426;10.300;2023-04-27T00:06:39;101855.28;;;4.07;100.00
62791;BME280;48830;53.426;10.300;2023-04-27T00:09:04;101855.13;;;4.04;100.00
62791;BME280;48830;53.426;10.300;2023-04-27T00:11:30;101856.25;;;3.94;100.00
62791;BME280;48830;53.426;10.300;2023-04-27T00:13:55;101855.72;;;4.00;100.00
62791;BME280;48830;53.426;10.300;2023-04-27T00:16:21;101854.09;;;3.87;100.00
62791;BME280;48830;53.426;10.300;2023-04-27T00:18:46;101860.84;;;3.86;100.00
62791;BME280;48830;53.426;10.300;2023-04-27T00:21:12;101864.19;;;3.85;100.00
62791;BME280;48830;53.426;10.300;2023-04-27T00:23:37;101862.38;;;3.83;100.00
62791;BME280;48830;53.426;10.300;2023-04-27T00:26:02;101856.28;;;3.81;100.00
62791;BME280;48830;53.426;10.300;2023-04-27T00:28:28;101852.34;;;3.86;100.00
62791;BME280;48830;53.426;10.300;2023-04-27T00:30:57;101856.91;;;3.91;100.00
62791;BME280;48830;53.426;10.300;2023-04-27T00:33:25;101854.56;;;3.94;100.00
62791;BME280;48830;53.426;10.300;2023-04-27T00:35:51;101850.97;;;3.91;100.00
62791;BME280;48830;53.426;10.300;2023-04-27T00:38:16;101848.13;;;3.86;100.00
62791;BME280;48830;53.426;10.300;2023-04-27T00:40:41;101853.66;;;3.79;100.00
62791;BME280;48830;53.426;10.300;2023-04-27T00:43:07;101850.16;;;3.77;100.00
62791;BME280;48830;53.426;10.300;2023-04-27T00:45:40;101852.78;;;3.79;100.00
62791;BME280;48830;53.426;10.300;2023-04-27T00:48:07;101846.09;;;3.81;100.00
62791;BME280;48830;53.426;10.300;2023-04-27T00:50:33;101857.88;;;3.79;100.00
62791;BME280;48830;53.426;10.300;2023-04-27T00:52:59;101851.91;;;3.78;100.00
62791;BME280;48830;53.426;10.300;2023-04-27T00:55:25;101853.31;;;3.73;100.00
62791;BME280;48830;53.426;10.300;2023-04-27T00:57:51;101849.75;;;3.71;100.00
62791;BME280;48830;53.426;10.300;2023-04-27T01:00:17;101851.19;;;3.66;100.00
62791;BME280;48830;53.426;10.300;2023-04-27T01:02:42;101853.06;;;3.55;100.00
62791;BME280;48830;53.426;10.300;2023-04-27T01:05:08;101857.09;;;3.52;100.00
62791;BME280;48830;53.426;10.300;2023-04-27T01:07:38;101849.38;;;3.50;100.00
62791;BME280;48830;53.426;10.300;2023-04-27T01:10:04;101856.88;;;3.49;100.00
62791;BME280;48830;53.426;10.300;2023-04-27T01:12:30;101858.78;;;3.38;100.00
62791;BME280;48830;53.426;10.300;2023-04-27T01:14:55;101859.09;;;3.29;100.00
62791;BME280;48830;53.426;10.300;2023-04-27T01:17:21;101862.22;;;3.25;100.00
62791;BME280;48830;53.426;10.300;2023-04-27T01:19:46;101867.09;;;3.22;100.00
62791;BME280;48830;53.426;10.300;2023-04-27T01:22:12;101870.25;;;3.18;100.00
62791;BME280;48830;53.426;10.300;2023-04-27T01:24:39;101862.25;;;3.12;100.00
62791;BME280;48830;53.426;10.300;2023-04-27T01:27:05;101868.81;;;3.08;100.00
62791;BME280;48830;53.426;10.300;2023-04-27T01:29:31;101871.25;;;3.07;100.00
62791;BME280;48830;53.426;10.300;2023-04-27T01:31:57;101873.59;;;3.04;100.00
62791;BME280;48830;53.426;10.300;2023-04-27T01:34:22;101871.06;;;3.04;100.00
62791;BME280;48830;53.426;10.300;2023-04-27T01:36:48;101874.19;;;3.00;100.00
62791;BME280;48830;53.426;10.300;2023-04-27T01:39:13;101882.19;;;2.93;100.00
62791;BME280;48830;53.426;10.300;2023-04-27T01:41:39;101883.47;;;2.86;100.00
62791;BME280;48830;53.426;10.300;2023-04-27T01:44:05;101884.22;;;2.85;100.00
62791;BME280;48830;53.426;10.300;2023-04-27T01:46:31;101890.00;;;2.82;100.00
62791;BME280;48830;53.426;10.300;2023-04-27T01:48:56;101889.31;;;2.85;100.00
62791;BME280;48830;53.426;10.300;2023-04-27T01:51:22;101886.00;;;2.86;100.00
62791;BME280;48830;53.426;10.300;2023-04-27T01:53:47;101888.72;;;2.89;100.00
62791;BME280;48830;53.426;10.300;2023-04-27T01:56:15;101892.75;;;2.85;100.00
62791;BME280;48830;53.426;10.300;2023-04-27T01:58:40;101891.09;;;2.86;100.00
62791;BME280;48830;53.426;10.300;2023-04-27T02:01:06;101890.69;;;2.93;100.00
62791;BME280;48830;53.426;10.300;2023-04-27T02:03:32;101891.00;;;2.98;100.00
62791;BME280;48830;53.426;10.300;2023-04-27T02:05:57;101899.09;;;2.92;100.00
62791;BME280;48830;53.426;10.300;2023-04-27T02:08:22;101905.63;;;2.88;100.00
62791;BME280;48830;53.426;10.300;2023-04-27T02:10:48;101904.06;;;2.90;100.00
62791;BME280;48830;53.426;10.300;2023-04-27T02:13:15;101912.84;;;2.82;100.00
62791;BME280;48830;53.426;10.300;2023-04-27T02:15:40;101916.97;;;2.80;100.00
62791;BME280;48830;53.426;10.300;2023-04-27T02:18:06;101923.41;;;2.75;100.00
62791;BME280;48830;53.426;10.300;2023-04-27T02:20:32;101915.41;;;2.69;100.00
62791;BME280;48830;53.426;10.300;2023-04-27T02:22:59;101917.50;;;2.63;100.00
62791;BME280;48830;53.426;10.300;2023-04-27T02:25:25;101928.66;;;2.65;100.00
62791;BME280;48830;53.426;10.300;2023-04-27T02:27:51;101930.19;;;2.63;100.00
62791;BME280;48830;53.426;10.300;2023-04-27T02:30:16;101926.13;;;2.65;100.00
62791;BME280;48830;53.426;10.300;2023-04-27T02:32:41;101923.00;;;2.69;100.00
62791;BME280;48830;53.426;10.300;2023-04-27T02:35:08;101922.81;;;2.66;100.00
62791;BME280;48830;53.426;10.300;2023-04-27T02:37:34;101927.19;;;2.69;100.00
62791;BME280;48830;53.426;10.300;2023-04-27T02:40:00;101928.09;;;2.69;100.00
62791;BME280;48830;53.426;10.300;2023-04-27T02:42:25;101932.00;;;2.64;100.00
62791;BME280;48830;53.426;10.300;2023-04-27T02:44:51;101933.91;;;2.68;100.00
62791;BME280;48830;53.426;10.300;2023-04-27T02:47:17;101933.84;;;2.67;100.00
62791;BME280;48830;53.426;10.300;2023-04-27T02:49:43;101933.75;;;2.65;100.00
62791;BME280;48830;53.426;10.300;2023-04-27T02:52:08;101928.47;;;2.75;100.00
62791;BME280;48830;53.426;10.300;2023-04-27T02:54:34;101929.84;;;2.83;100.00
62791;BME280;48830;53.426;10.300;2023-04-27T02:57:00;101923.97;;;2.84;100.00
62791;BME280;48830;53.426;10.300;2023-04-27T02:59:26;101936.09;;;2.88;100.00
62791;BME280;48830;53.426;10.300;2023-04-27T03:01:51;101927.31;;;2.83;100.00
62791;BME280;48830;53.426;10.300;2023-04-27T03:04:17;101933.25;;;2.84;100.00
62791;BME280;48830;53.426;10.300;2023-04-27T03:06:43;101922.03;;;2.80;100.00
62791;BME280;48830;53.426;10.300;2023-04-27T03:09:09;101929.06;;;2.84;100.00
62791;BME280;48830;53.426;10.300;2023-04-27T03:11:35;101926.53;;;2.84;100.00
62791;BME280;48830;53.426;10.300;2023-04-27T03:14:01;101928.41;;;2.87;100.00
62791;BME280;48830;53.426;10.300;2023-04-27T03:16:27;101929.66;;;2.94;100.00
62791;BME280;48830;53.426;10.300;2023-04-27T03:18:52;101923.22;;;2.99;100.00
62791;BME280;48830;53.426;10.300;2023-04-27T03:21:18;101923.31;;;3.00;100.00
62791;BME280;48830;53.426;10.300;2023-04-27T03:23:47;101929.47;;;3.04;100.00
62791;BME280;48830;53.426;10.300;2023-04-27T03:26:15;101935.63;;;2.94;100.00
62791;BME280;48830;53.426;10.300;2023-04-27T03:28:40;101932.50;;;2.98;100.00
62791;BME280;48830;53.426;10.300;2023-04-27T03:31:11;101938.47;;;2.85;100.00
62791;BME280;48830;53.426;10.300;2023-04-27T03:33:38;101936.78;;;2.99;100.00
62791;BME280;48830;53.426;10.300;2023-04-27T03:36:05;101939.91;;;2.95;100.00
62791;BME280;48830;53.426;10.300;2023-04-27T03:38:32;101941.28;;;3.03;100.00
62791;BME280;48830;53.426;10.300;2023-04-27T03:40:58;101933.59;;;3.02;100.00
62791;BME280;48830;53.426;10.300;2023-04-27T03:43:24;101940.03;;;2.97;100.00
62791;BME280;48830;53.426;10.300;2023-04-27T03:45:50;101935.34;;;3.03;100.00
62791;BME280;48830;53.426;10.300;2023-04-27T03:48:16;101941.00;;;2.99;100.00
62791;BME280;48830;53.426;10.300;2023-04-27T03:50:43;101938.06;;;2.93;100.00
62791;BME280;48830;53.426;10.300;2023-04-27T03:53:08;101938.25;;;2.96;100.00
62791;BME280;48830;53.426;10.300;2023-04-27T03:55:38;101940.03;;;2.97;100.00
62791;BME280;48830;53.426;10.300;2023-04-27T03:58:04;101939.03;;;2.95;100.00
62791;BME280;48830;53.426;10.300;2023-04-27T04:00:30;101940.88;;;2.84;100.00
62791;BME280;48830;53.426;10.300;2023-04-27T04:02:56;101943.94;;;2.92;100.00
62791;BME280;48830;53.426;10.300;2023-04-27T04:05:21;101947.63;;;2.83;100.00
62791;BME280;48830;53.426;10.300;2023-04-27T04:07:47;101942.16;;;2.90;100.00
62791;BME280;48830;53.426;10.300;2023-04-27T04:10:13;101947.13;;;2.89;100.00
62791;BME280;48830;53.426;10.300;2023-04-27T04:12:39;101942.94;;;2.76;100.00
62791;BME280;48830;53.426;10.300;2023-04-27T04:15:05;101948.09;;;2.78;100.00
62791;BME280;48830;53.426;10.300;2023-04-27T04:17:32;101949.44;;;2.59;100.00
62791;BME280;48830;53.426;10.300;2023-04-27T04:19:59;101948.66;;;2.60;100.00
62791;BME280;48830;53.426;10.300;2023-04-27T04:22:25;101947.78;;;2.73;100.00
62791;BME280;48830;53.426;10.300;2023-04-27T04:24:51;101948.41;;;2.69;100.00
62791;BME280;48830;53.426;10.300;2023-04-27T04:27:16;101955.59;;;2.63;100.00
62791;BME280;48830;53.426;10.300;2023-04-27T04:29:42;101961.84;;;2.55;100.00
62791;BME280;48830;53.426;10.300;2023-04-27T04:32:07;101963.75;;;2.46;100.00
62791;BME280;48830;53.426;10.300;2023-04-27T04:34:35;101962.63;;;2.54;100.00
62791;BME280;48830;53.426;10.300;2023-04-27T04:37:01;101961.09;;;2.69;100.00
62791;BME280;48830;53.426;10.300;2023-04-27T04:39:32;101962.47;;;2.77;100.00
62791;BME280;48830;53.426;10.300;2023-04-27T04:41:58;101965.16;;;2.67;100.00
62791;BME280;48830;53.426;10.300;2023-04-27T04:44:26;101962.53;;;2.79;100.00
62791;BME280;48830;53.426;10.300;2023-04-27T04:46:52;101967.75;;;2.80;100.00
62791;BME280;48830;53.426;10.300;2023-04-27T04:49:17;101961.59;;;2.77;100.00
62791;BME280;48830;53.426;10.300;2023-04-27T04:51:43;101967.66;;;2.92;100.00
62791;BME280;48830;53.426;10.300;2023-04-27T04:54:10;101980.84;;;3.00;100.00
62791;BME280;48830;53.426;10.300;2023-04-27T04:56:36;101975.97;;;3.03;100.00
62791;BME280;48830;53.426;10.300;2023-04-27T04:59:02;101980.38;;;3.05;100.00
62791;BME280;48830;53.426;10.300;2023-04-27T05:01:30;101979.47;;;3.05;100.00
62791;BME280;48830;53.426;10.300;2023-04-27T05:03:55;101983.59;;;3.16;100.00
62791;BME280;48830;53.426;10.300;2023-04-27T05:06:21;101982.72;;;3.02;100.00
62791;BME280;48830;53.426;10.300;2023-04-27T05:08:46;101989.47;;;3.15;100.00
62791;BME280;48830;53.426;10.300;2023-04-27T05:11:12;101992.03;;;3.28;100.00
62791;BME280;48830;53.426;10.300;2023-04-27T05:13:37;101988.75;;;3.44;100.00
62791;BME280;48830;53.426;10.300;2023-04-27T05:16:05;101989.66;;;3.58;100.00
62791;BME280;48830;53.426;10.300;2023-04-27T05:18:31;101994.91;;;3.74;100.00
62791;BME280;48830;53.426;10.300;2023-04-27T05:20:56;101998.31;;;3.75;100.00
62791;BME280;48830;53.426;10.300;2023-04-27T05:23:22;101992.16;;;3.71;100.00
62791;BME280;48830;53.426;10.300;2023-04-27T05:25:47;101992.28;;;3.73;100.00
62791;BME280;48830;53.426;10.300;2023-04-27T05:28:13;101997.81;;;3.80;100.00
62791;BME280;48830;53.426;10.300;2023-04-27T05:30:38;101995.63;;;4.00;100.00
62791;BME280;48830;53.426;10.300;2023-04-27T05:33:04;102004.72;;;4.37;100.00
62791;BME280;48830;53.426;10.300;2023-04-27T05:35:30;101998.69;;;4.65;100.00
62791;BME280;48830;53.426;10.300;2023-04-27T05:37:56;101989.50;;;4.82;100.00
62791;BME280;48830;53.426;10.300;2023-04-27T05:40:22;101993.19;;;5.02;100.00
62791;BME280;48830;53.426;10.300;2023-04-27T05:42:48;101993.34;;;5.05;100.00
62791;BME280;48830;53.426;10.300;2023-04-27T05:45:14;101995.63;;;5.15;100.00
62791;BME280;48830;53.426;10.300;2023-04-27T05:47:39;101995.09;;;5.20;100.00
62791;BME280;48830;53.426;10.300;2023-04-27T05:50:05;101989.97;;;5.35;100.00
62791;BME280;48830;53.426;10.300;2023-04-27T05:52:30;101994.41;;;5.23;100.00
62791;BME280;48830;53.426;10.300;2023-04-27T05:54:56;101992.13;;;5.28;100.00
62791;BME280;48830;53.426;10.300;2023-04-27T05:57:25;102000.72;;;5.30;100.00
62791;BME280;48830;53.426;10.300;2023-04-27T05:59:51;101997.16;;;5.42;100.00
62791;BME280;48830;53.426;10.300;2023-04-27T06:02:17;101994.38;;;5.69;100.00
62791;BME280;48830;53.426;10.300;2023-04-27T06:04:44;102000.22;;;5.97;100.00
62791;BME280;48830;53.426;10.300;2023-04-27T06:07:12;102005.47;;;6.00;100.00
62791;BME280;48830;53.426;10.300;2023-04-27T06:09:38;102000.56;;;6.20;100.00
62791;BME280;48830;53.426;10.300;2023-04-27T06:12:04;102006.78;;;6.25;100.00
62791;BME280;48830;53.426;10.300;2023-04-27T06:14:32;102006.91;;;6.44;100.00
62791;BME280;48830;53.426;10.300;2023-04-27T06:16:57;102006.47;;;6.51;100.00
62791;BME280;48830;53.426;10.300;2023-04-27T06:19:23;102000.31;;;6.48;100.00
62791;BME280;48830;53.426;10.300;2023-04-27T06:21:49;102007.03;;;6.80;100.00
62791;BME280;48830;53.426;10.300;2023-04-27T06:24:15;102006.41;;;6.84;100.00
62791;BME280;48830;53.426;10.300;2023-04-27T06:26:41;102009.34;;;7.09;100.00
62791;BME280;48830;53.426;10.300;2023-04-27T06:29:06;102007.47;;;7.23;100.00
62791;BME280;48830;53.426;10.300;2023-04-27T06:31:33;102005.72;;;7.40;100.00
62791;BME280;48830;53.426;10.300;2023-04-27T06:33:59;102010.97;;;7.25;100.00
62791;BME280;48830;53.426;10.300;2023-04-27T06:36:25;102016.53;;;7.52;99.85
62791;BME280;48830;53.426;10.300;2023-04-27T06:38:53;102019.16;;;7.72;98.83
62791;BME280;48830;53.426;10.300;2023-04-27T06:41:23;102008.00;;;7.89;97.36
62791;BME280;48830;53.426;10.300;2023-04-27T06:43:49;102013.81;;;8.04;96.16
62791;BME280;48830;53.426;10.300;2023-04-27T06:46:15;102010.38;;;8.23;95.52
62791;BME280;48830;53.426;10.300;2023-04-27T06:48:40;102020.88;;;8.47;95.80
62791;BME280;48830;53.426;10.300;2023-04-27T06:51:06;102018.38;;;8.68;95.13
62791;BME280;48830;53.426;10.300;2023-04-27T06:53:31;102021.34;;;8.98;92.56
62791;BME280;48830;53.426;10.300;2023-04-27T06:55:57;102020.31;;;8.74;91.26
62791;BME280;48830;53.426;10.300;2023-04-27T06:58:22;102018.25;;;8.46;89.61
62791;BME280;48830;53.426;10.300;2023-04-27T07:00:48;102022.22;;;8.78;89.42
62791;BME280;48830;53.426;10.300;2023-04-27T07:03:13;102024.97;;;9.03;87.94
62791;BME280;48830;53.426;10.300;2023-04-27T07:05:39;102025.22;;;9.09;87.80
62791;BME280;48830;53.426;10.300;2023-04-27T07:08:05;102031.25;;;8.70;87.80
62791;BME280;48830;53.426;10.300;2023-04-27T07:10:31;102033.63;;;9.05;87.97
62791;BME280;48830;53.426;10.300;2023-04-27T07:12:56;102033.78;;;9.31;86.96
62791;BME280;48830;53.426;10.300;2023-04-27T07:15:22;102030.31;;;9.51;86.05
62791;BME280;48830;53.426;10.300;2023-04-27T07:17:47;102037.31;;;9.76;84.19
62791;BME280;48830;53.426;10.300;2023-04-27T07:20:13;102039.19;;;9.16;82.28
62791;BME280;48830;53.426;10.300;2023-04-27T07:22:38;102032.66;;;9.03;84.45
62791;BME280;48830;53.426;10.300;2023-04-27T07:25:05;102027.28;;;9.39;85.42
62791;BME280;48830;53.426;10.300;2023-04-27T07:27:31;102033.97;;;9.14;84.19
62791;BME280;48830;53.426;10.300;2023-04-27T07:29:57;102024.31;;;9.51;83.91
62791;BME280;48830;53.426;10.300;2023-04-27T07:32:23;102027.56;;;10.12;82.98
62791;BME280;48830;53.426;10.300;2023-04-27T07:34:48;102033.19;;;9.80;81.11
62791;BME280;48830;53.426;10.300;2023-04-27T07:37:15;102039.41;;;9.86;81.48
62791;BME280;48830;53.426;10.300;2023-04-27T07:39:41;102034.09;;;10.04;80.24
62791;BME280;48830;53.426;10.300;2023-04-27T07:42:06;102042.75;;;10.52;79.93
62791;BME280;48830;53.426;10.300;2023-04-27T07:44:33;102043.53;;;10.28;77.60
62791;BME280;48830;53.426;10.300;2023-04-27T07:46:58;102037.28;;;10.67;76.78
62791;BME280;48830;53.426;10.300;2023-04-27T07:49:23;102045.38;;;11.03;73.91
62791;BME280;48830;53.426;10.300;2023-04-27T07:51:50;102055.56;;;11.26;74.18
62791;BME280;48830;53.426;10.300;2023-04-27T07:54:16;102054.13;;;11.09;71.74
62791;BME280;48830;53.426;10.300;2023-04-27T07:56:42;102059.44;;;11.67;71.33
62791;BME280;48830;53.426;10.300;2023-04-27T07:59:07;102051.84;;;11.18;70.29
62791;BME280;48830;53.426;10.300;2023-04-27T08:01:33;102059.06;;;11.55;71.04
62791;BME280;48830;53.426;10.300;2023-04-27T08:03:58;102061.53;;;11.25;69.81
62791;BME280;48830;53.426;10.300;2023-04-27T08:06:24;102062.81;;;11.12;70.37
62791;BME280;48830;53.426;10.300;2023-04-27T08:08:49;102059.56;;;11.18;71.09
62791;BME280;48830;53.426;10.300;2023-04-27T08:11:15;102055.72;;;11.30;69.20
62791;BME280;48830;53.426;10.300;2023-04-27T08:13:40;102049.84;;;11.09;69.30
62791;BME280;48830;53.426;10.300;2023-04-27T08:16:06;102048.38;;;10.92;65.48
62791;BME280;48830;53.426;10.300;2023-04-27T08:18:31;102054.16;;;11.36;64.03
62791;BME280;48830;53.426;10.300;2023-04-27T08:20:57;102054.91;;;11.86;63.45
62791;BME280;48830;53.426;10.300;2023-04-27T08:23:25;102042.19;;;11.92;61.47
62791;BME280;48830;53.426;10.300;2023-04-27T08:25:52;102035.28;;;12.21;60.71
62791;BME280;48830;53.426;10.300;2023-04-27T08:28:17;102042.28;;;12.55;62.29
62791;BME280;48830;53.426;10.300;2023-04-27T08:30:42;102041.63;;;12.02;62.09
62791;BME280;48830;53.426;10.300;2023-04-27T08:33:08;102040.28;;;12.45;61.27
62791;BME280;48830;53.426;10.300;2023-04-27T08:35:34;102038.78;;;12.86;58.04
62791;BME280;48830;53.426;10.300;2023-04-27T08:38:00;102039.28;;;13.04;59.00
62791;BME280;48830;53.426;10.300;2023-04-27T08:40:25;102033.44;;;13.11;56.53
62791;BME280;48830;53.426;10.300;2023-04-27T08:42:58;102027.91;;;13.31;56.13
62791;BME280;48830;53.426;10.300;2023-04-27T08:45:24;102034.19;;;12.74;57.59
62791;BME280;48830;53.426;10.300;2023-04-27T08:47:50;102030.56;;;12.36;58.34
62791;BME280;48830;53.426;10.300;2023-04-27T08:50:16;102025.22;;;12.60;58.71
62791;BME280;48830;53.426;10.300;2023-04-27T08:52:44;102030.25;;;12.87;56.46
62791;BME280;48830;53.426;10.300;2023-04-27T08:55:09;102021.03;;;13.68;55.86
62791;BME280;48830;53.426;10.300;2023-04-27T08:57:35;102026.56;;;13.47;54.89
62791;BME280;48830;53.426;10.300;2023-04-27T09:00:00;102013.13;;;13.24;55.67
62791;BME280;48830;53.426;10.300;2023-04-27T09:02:28;102017.84;;;13.42;56.75
62791;BME280;48830;53.426;10.300;2023-04-27T09:04:54;102014.44;;;13.08;56.66
62791;BME280;48830;53.426;10.300;2023-04-27T09:07:20;102017.75;;;13.04;54.21
62791;BME280;48830;53.426;10.300;2023-04-27T09:09:46;102010.75;;;13.00;56.21
62791;BME280;48830;53.426;10.300;2023-04-27T09:12:21;102010.47;;;12.87;55.81
62791;BME280;48830;53.426;10.300;2023-04-27T09:15:00;102016.75;;;12.32;55.87
62791;BME280;48830;53.426;10.300;2023-04-27T09:17:28;102020.50;;;12.77;55.31
62791;BME280;48830;53.426;10.300;2023-04-27T09:20:08;102016.81;;;12.67;56.17
62791;BME280;48830;53.426;10.300;2023-04-27T09:25:20;102021.41;;;12.79;55.69
62791;BME280;48830;53.426;10.300;2023-04-27T09:27:46;102021.63;;;12.86;55.94
62791;BME280;48830;53.426;10.300;2023-04-27T09:30:13;102014.38;;;12.73;55.83
62791;BME280;48830;53.426;10.300;2023-04-27T09:32:38;102017.22;;;12.82;56.21
62791;BME280;48830;53.426;10.300;2023-04-27T09:35:16;102016.25;;;13.86;55.66
62791;BME280;48830;53.426;10.300;2023-04-27T09:37:44;102017.75;;;14.15;54.10
62791;BME280;48830;53.426;10.300;2023-04-27T09:40:10;102007.25;;;14.09;51.94
62791;BME280;48830;53.426;10.300;2023-04-27T09:42:36;102006.16;;;13.21;52.95
62791;BME280;48830;53.426;10.300;2023-04-27T09:45:03;102012.94;;;13.54;51.62
62791;BME280;48830;53.426;10.300;2023-04-27T09:47:29;102000.75;;;13.47;51.78
62791;BME280;48830;53.426;10.300;2023-04-27T09:49:55;102009.03;;;13.33;51.26
62791;BME280;48830;53.426;10.300;2023-04-27T09:52:22;102007.44;;;13.38;53.09
62791;BME280;48830;53.426;10.300;2023-04-27T09:54:48;102006.44;;;13.33;50.42
62791;BME280;48830;53.426;10.300;2023-04-27T09:57:29;102006.16;;;13.57;50.27
62791;BME280;48830;53.426;10.300;2023-04-27T10:00:09;101997.72;;;14.48;49.68
62791;BME280;48830;53.426;10.300;2023-04-27T10:08:39;101994.91;;;15.99;46.41
62791;BME280;48830;53.426;10.300;2023-04-27T10:11:13;101998.44;;;16.04;45.18
62791;BME280;48830;53.426;10.300;2023-04-27T10:13:50;101993.78;;;15.80;44.48
62791;BME280;48830;53.426;10.300;2023-04-27T10:16:17;101985.47;;;16.09;44.31
62791;BME280;48830;53.426;10.300;2023-04-27T10:18:53;101988.13;;;15.46;45.63
62791;BME280;48830;53.426;10.300;2023-04-27T10:21:19;101990.97;;;15.07;46.76
62791;BME280;48830;53.426;10.300;2023-04-27T10:23:49;101993.13;;;13.93;49.60
62791;BME280;48830;53.426;10.300;2023-04-27T10:26:26;101989.91;;;14.04;48.56
62791;BME280;48830;53.426;10.300;2023-04-27T10:29:05;101995.88;;;14.45;49.83
62791;BME280;48830;53.426;10.300;2023-04-27T10:31:34;101995.63;;;14.77;48.16
62791;BME280;48830;53.426;10.300;2023-04-27T10:34:10;101995.31;;;15.08;46.75
62791;BME280;48830;53.426;10.300;2023-04-27T10:36:39;101993.91;;;15.30;47.17
62791;BME280;48830;53.426;10.300;2023-04-27T10:41:48;101992.75;;;15.11;47.46
62791;BME280;48830;53.426;10.300;2023-04-27T10:44:19;102001.03;;;14.90;48.71
62791;BME280;48830;53.426;10.300;2023-04-27T10:46:52;101995.66;;;14.78;46.76
62791;BME280;48830;53.426;10.300;2023-04-27T10:49:18;101989.94;;;14.48;46.39
62791;BME280;48830;53.426;10.300;2023-04-27T10:51:44;101997.44;;;14.82;44.93
62791;BME280;48830;53.426;10.300;2023-04-27T10:54:11;101997.16;;;15.73;45.10
62791;BME280;48830;53.426;10.300;2023-04-27T10:56:36;101996.16;;;16.33;43.93
62791;BME280;48830;53.426;10.300;2023-04-27T10:59:03;101997.19;;;16.50;42.57
62791;BME280;48830;53.426;10.300;2023-04-27T11:01:29;101988.88;;;16.82;42.18
62791;BME280;48830;53.426;10.300;2023-04-27T11:03:55;101991.91;;;17.40;41.66
62791;BME280;48830;53.426;10.300;2023-04-27T11:06:22;101993.47;;;17.14;42.23
62791;BME280;48830;53.426;10.300;2023-04-27T11:08:47;101995.03;;;16.95;42.70
62791;BME280;48830;53.426;10.300;2023-04-27T11:11:16;101995.41;;;16.43;44.14
62791;BME280;48830;53.426;10.300;2023-04-27T11:13:43;101997.00;;;16.32;44.25
62791;BME280;48830;53.426;10.300;2023-04-27T11:16:09;101999.81;;;15.79;45.54
62791;BME280;48830;53.426;10.300;2023-04-27T11:18:36;102000.94;;;15.39;46.29
62791;BME280;48830;53.426;10.300;2023-04-27T11:21:12;101995.66;;;15.33;46.18
62791;BME280;48830;53.426;10.300;2023-04-27T11:23:39;101993.06;;;15.31;46.85
62791;BME280;48830;53.426;10.300;2023-04-27T11:26:19;101996.59;;;15.38;44.47
62791;BME280;48830;53.426;10.300;2023-04-27T11:29:08;101998.81;;;15.69;45.90
62791;BME280;48830;53.426;10.300;2023-04-27T11:31:42;101997.63;;;15.49;46.15
62791;BME280;48830;53.426;10.300;2023-04-27T11:34:16;101995.03;;;15.47;43.90
62791;BME280;48830;53.426;10.300;2023-04-27T11:36:42;102000.53;;;15.67;43.39
62791;BME280;48830;53.426;10.300;2023-04-27T11:39:16;101997.16;;;15.74;43.30
62791;BME280;48830;53.426;10.300;2023-04-27T11:41:46;102000.56;;;15.70;43.31
62791;BME280;48830;53.426;10.300;2023-04-27T11:44:11;101996.50;;;15.91;44.19
62791;BME280;48830;53.426;10.300;2023-04-27T11:46:37;101998.09;;;15.81;43.03
62791;BME280;48830;53.426;10.300;2023-04-27T11:49:04;101993.44;;;16.21;43.90
62791;BME280;48830;53.426;10.300;2023-04-27T11:51:31;101994.31;;;16.23;44.95
62791;BME280;48830;53.426;10.300;2023-04-27T11:54:09;101997.34;;;15.88;45.52
62791;BME280;48830;53.426;10.300;2023-04-27T11:56:37;101999.66;;;15.11;46.60
62791;BME280;48830;53.426;10.300;2023-04-27T11:59:03;102001.91;;;14.00;48.40
62791;BME280;48830;53.426;10.300;2023-04-27T12:01:30;102004.44;;;15.41;47.85
62791;BME280;48830;53.426;10.300;2023-04-27T12:03:56;101996.56;;;16.73;47.11
62791;BME280;48830;53.426;10.300;2023-04-27T12:06:26;101987.91;;;16.71;45.54
62791;BME280;48830;53.426;10.300;2023-04-27T12:08:56;101992.81;;;16.45;44.47
62791;BME280;48830;53.426;10.300;2023-04-27T12:11:24;101997.94;;;16.37;45.47
62791;BME280;48830;53.426;10.300;2023-04-27T12:13:50;101989.06;;;16.17;46.64
62791;BME280;48830;53.426;10.300;2023-04-27T12:16:17;101995.84;;;16.09;46.97
62791;BME280;48830;53.426;10.300;2023-04-27T12:18:42;101996.50;;;15.91;47.39
62791;BME280;48830;53.426;10.300;2023-04-27T12:21:08;101998.94;;;14.24;48.51
62791;BME280;48830;53.426;10.300;2023-04-27T12:23:34;102001.94;;;14.91;48.59
62791;BME280;48830;53.426;10.300;2023-04-27T12:26:00;101998.69;;;15.04;47.58
62791;BME280;48830;53.426;10.300;2023-04-27T12:28:26;102000.84;;;15.31;47.85
62791;BME280;48830;53.426;10.300;2023-04-27T12:30:54;101999.91;;;15.85;48.05
62791;BME280;48830;53.426;10.300;2023-04-27T12:33:20;102002.81;;;16.10;46.87
62791;BME280;48830;53.426;10.300;2023-04-27T12:35:46;101995.50;;;16.52;46.81
62791;BME280;48830;53.426;10.300;2023-04-27T12:38:11;101999.78;;;16.49;47.44
62791;BME280;48830;53.426;10.300;2023-04-27T12:40:37;102000.13;;;16.81;45.68
62791;BME280;48830;53.426;10.300;2023-04-27T12:43:02;101996.28;;;16.45;44.96
62791;BME280;48830;53.426;10.300;2023-04-27T12:45:28;102003.88;;;16.25;46.76
62791;BME280;48830;53.426;10.300;2023-04-27T12:47:53;101997.56;;;16.07;46.38
62791;BME280;48830;53.426;10.300;2023-04-27T12:50:19;102002.38;;;15.76;47.34